Aviation Digital Data Service (ADDS)

Output produced by METARs form (0640 UTC 17 April 2014)
found at http://www.aviationweather.gov/adds/metars/
 
KWWD 170635Z AUTO 03005KT 10SM CLR 01/M03 A3055 RMK AO1